Time;durP1;ratioP1;P1;durP2;ratioP2;P2;SDS_P1;SDS_P2;PMS_P1;PMS_P2;Temp;Humidity;BMP_temperature;BMP_pressure;BME280_temperature;BME280_humidity;BME280_pressure;Samples;Min_cycle;Max_cycle;Signal;HPM_P1;HPM_P2
2021/04/16 00:00:00;;;;;;;4.50;1.97;;;;;;;;;;5039998;28;20047;-67
2021/04/16 00:02:26;;;;;;;7.50;2.20;;;;;;;;;;5043383;28;20044;-67
2021/04/16 00:04:51;;;;;;;8.53;2.40;;;;;;;;;;5031015;28;20086;-67
2021/04/16 00:07:17;;;;;;;5.10;2.10;;;;;;;;;;5037849;28;20017;-68
2021/04/16 00:09:42;;;;;;;5.60;2.83;;;;;;;;;;5038527;28;20028;-68
2021/04/16 00:12:07;;;;;;;6.73;2.37;;;;;;;;;;5037501;28;20033;-67
2021/04/16 00:14:33;;;;;;;7.50;2.50;;;;;;;;;;5036096;28;20017;-67
2021/04/16 00:16:58;;;;;;;4.97;2.27;;;;;;;;;;5042879;28;20028;-67
2021/04/16 00:19:24;;;;;;;4.43;2.10;;;;;;;;;;5041776;28;20026;-67
2021/04/16 00:21:49;;;;;;;7.77;2.37;;;;;;;;;;5039516;28;20056;-67
2021/04/16 00:24:14;;;;;;;5.77;2.40;;;;;;;;;;5042091;28;20017;-68
2021/04/16 00:26:40;;;;;;;5.80;2.50;;;;;;;;;;5050511;28;20083;-67
2021/04/16 00:29:06;;;;;;;7.07;2.70;;;;;;;;;;5041346;28;20027;-67
2021/04/16 00:31:31;;;;;;;5.93;2.40;;;;;;;;;;5052399;28;20037;-67
2021/04/16 00:33:57;;;;;;;6.07;2.33;;;;;;;;;;5040248;28;20465;-67
2021/04/16 00:36:22;;;;;;;6.23;2.70;;;;;;;;;;5045993;28;20059;-68
2021/04/16 00:38:48;;;;;;;7.37;2.90;;;;;;;;;;5040935;28;20033;-67
2021/04/16 00:41:15;;;;;;;7.00;2.90;;;;;;;;;;5049276;28;20024;-67
2021/04/16 00:43:40;;;;;;;5.73;2.60;;;;;;;;;;5039200;28;20017;-67
2021/04/16 00:46:11;;;;;;;7.40;3.10;;;;;;;;;;5034275;28;20333;-67
2021/04/16 00:48:39;;;;;;;5.73;2.33;;;;;;;;;;5033437;28;20021;-67
2021/04/16 00:51:06;;;;;;;6.23;3.17;;;;;;;;;;5036550;28;20276;-67
2021/04/16 00:53:31;;;;;;;8.73;3.20;;;;;;;;;;5034106;28;20264;-67
2021/04/16 00:55:57;;;;;;;5.13;2.73;;;;;;;;;;5040418;28;20272;-67
2021/04/16 00:58:25;;;;;;;6.53;2.80;;;;;;;;;;5037031;28;20486;-68
2021/04/16 01:00:53;;;;;;;6.47;2.80;;;;;;;;;;5046161;28;20095;-67
2021/04/16 01:03:18;;;;;;;8.47;3.10;;;;;;;;;;5098249;22;20497;-64
2021/04/16 01:05:43;;;;;;;6.20;2.83;;;;;;;;;;5077568;28;20806;-64
2021/04/16 01:08:09;;;;;;;5.93;2.80;;;;;;;;;;5076909;28;20026;-64
2021/04/16 01:10:35;;;;;;;7.53;2.83;;;;;;;;;;5079467;28;20033;-64
2021/04/16 01:13:00;;;;;;;7.17;3.10;;;;;;;;;;5076551;28;20098;-64
2021/04/16 01:15:29;;;;;;;6.27;3.23;;;;;;;;;;5082041;28;20433;-64
2021/04/16 01:17:55;;;;;;;9.27;3.67;;;;;;;;;;5079079;28;20500;-64
2021/04/16 01:20:24;;;;;;;10.07;2.90;;;;;;;;;;5081465;28;20321;-65
2021/04/16 01:22:52;;;;;;;10.37;3.30;;;;;;;;;;5080819;28;20419;-64
2021/04/16 01:25:21;;;;;;;5.17;3.03;;;;;;;;;;5078571;28;20274;-64
2021/04/16 01:27:46;;;;;;;6.43;2.70;;;;;;;;;;5075033;28;20286;-64
2021/04/16 01:30:17;;;;;;;5.87;2.60;;;;;;;;;;5085365;28;20308;-64
2021/04/16 01:32:42;;;;;;;8.00;2.97;;;;;;;;;;5082350;28;20031;-64
2021/04/16 01:35:09;;;;;;;8.13;3.10;;;;;;;;;;5084589;28;20662;-64
2021/04/16 01:37:35;;;;;;;5.57;2.90;;;;;;;;;;5077613;28;20481;-65
2021/04/16 01:40:00;;;;;;;10.07;3.10;;;;;;;;;;5087517;28;20791;-64
2021/04/16 01:42:25;;;;;;;7.00;2.77;;;;;;;;;;5084660;28;20107;-64
2021/04/16 01:44:51;;;;;;;7.83;3.20;;;;;;;;;;5080563;28;20020;-65
2021/04/16 01:47:17;;;;;;;5.73;2.73;;;;;;;;;;5086209;28;20107;-64
2021/04/16 01:49:43;;;;;;;7.07;3.13;;;;;;;;;;5091031;28;20020;-64
2021/04/16 01:52:11;;;;;;;5.60;2.60;;;;;;;;;;5084006;28;20387;-65
2021/04/16 01:54:38;;;;;;;13.13;3.23;;;;;;;;;;5076069;28;20255;-65
2021/04/16 01:57:05;;;;;;;7.07;2.93;;;;;;;;;;5081641;28;20290;-64
2021/04/16 01:59:32;;;;;;;6.43;2.87;;;;;;;;;;5073897;28;20282;-65
2021/04/16 02:01:57;;;;;;;7.50;3.40;;;;;;;;;;5073959;28;20301;-64
2021/04/16 02:04:23;;;;;;;6.53;2.87;;;;;;;;;;5054497;28;20620;-64
2021/04/16 02:06:50;;;;;;;12.30;3.40;;;;;;;;;;5068806;28;20502;-65
2021/04/16 02:09:16;;;;;;;8.40;2.83;;;;;;;;;;5079428;28;20020;-65
2021/04/16 02:11:42;;;;;;;8.70;3.20;;;;;;;;;;5067807;28;20281;-65
2021/04/16 02:14:16;;;;;;;6.83;2.90;;;;;;;;;;5077187;28;20298;-64
2021/04/16 02:16:46;;;;;;;7.33;3.20;;;;;;;;;;5068485;28;20468;-65
2021/04/16 02:19:12;;;;;;;8.33;2.87;;;;;;;;;;5069416;28;20452;-65
2021/04/16 02:21:38;;;;;;;7.73;2.90;;;;;;;;;;5064684;28;20294;-65
2021/04/16 02:24:04;;;;;;;9.17;2.90;;;;;;;;;;5075028;28;20063;-64
2021/04/16 02:26:29;;;;;;;6.30;2.77;;;;;;;;;;5068070;28;20015;-65
2021/04/16 02:28:54;;;;;;;6.40;2.73;;;;;;;;;;5065719;28;20267;-65
2021/04/16 02:31:19;;;;;;;6.67;3.00;;;;;;;;;;5057836;28;20439;-65
2021/04/16 02:33:45;;;;;;;8.17;2.70;;;;;;;;;;5062402;28;20029;-65
2021/04/16 02:36:11;;;;;;;9.17;2.90;;;;;;;;;;5071403;28;20055;-65
2021/04/16 02:38:36;;;;;;;6.87;2.90;;;;;;;;;;5061180;28;20357;-65
2021/04/16 02:41:02;;;;;;;6.63;3.43;;;;;;;;;;5058138;28;20028;-64
2021/04/16 02:43:27;;;;;;;6.80;2.87;;;;;;;;;;5072803;28;20028;-65
2021/04/16 02:45:52;;;;;;;8.30;2.83;;;;;;;;;;5076308;28;20154;-65
2021/04/16 02:48:18;;;;;;;12.83;3.07;;;;;;;;;;5064076;28;20036;-64
2021/04/16 02:50:43;;;;;;;8.43;3.23;;;;;;;;;;5072211;28;20422;-64
2021/04/16 02:53:08;;;;;;;6.40;2.70;;;;;;;;;;5071704;28;20494;-64
2021/04/16 02:55:34;;;;;;;5.87;2.63;;;;;;;;;;5076120;28;20495;-65
2021/04/16 02:57:59;;;;;;;5.90;2.80;;;;;;;;;;5070646;28;20017;-66
2021/04/16 03:00:27;;;;;;;5.40;2.53;;;;;;;;;;5064100;28;20020;-67
2021/04/16 03:02:53;;;;;;;7.20;2.53;;;;;;;;;;5068769;28;20044;-67
2021/04/16 03:05:18;;;;;;;7.60;2.70;;;;;;;;;;5072626;28;20354;-67
2021/04/16 03:07:44;;;;;;;6.80;2.80;;;;;;;;;;5076320;28;20309;-67
2021/04/16 03:10:10;;;;;;;12.40;2.70;;;;;;;;;;5078910;28;20086;-67
2021/04/16 03:12:35;;;;;;;6.73;2.57;;;;;;;;;;5061160;28;20357;-67
2021/04/16 03:15:00;;;;;;;6.37;2.97;;;;;;;;;;5071420;28;20304;-67
2021/04/16 03:17:25;;;;;;;6.63;2.83;;;;;;;;;;5071783;28;20384;-67
2021/04/16 03:19:51;;;;;;;6.27;2.77;;;;;;;;;;5075373;28;20019;-67
2021/04/16 03:22:16;;;;;;;7.90;2.50;;;;;;;;;;5070694;28;20104;-70
2021/04/16 03:24:41;;;;;;;6.10;3.17;;;;;;;;;;5072677;28;20086;-67
2021/04/16 03:27:07;;;;;;;5.20;2.70;;;;;;;;;;5067064;28;20027;-67
2021/04/16 03:29:32;;;;;;;7.33;2.90;;;;;;;;;;5057575;28;20017;-67
2021/04/16 03:31:57;;;;;;;7.60;2.87;;;;;;;;;;5070445;28;20029;-67
2021/04/16 03:34:23;;;;;;;8.03;3.10;;;;;;;;;;5060613;28;20414;-67
2021/04/16 03:36:48;;;;;;;7.33;3.27;;;;;;;;;;5062618;28;20032;-67
2021/04/16 03:39:13;;;;;;;9.63;3.13;;;;;;;;;;5053573;28;20082;-68
2021/04/16 03:41:39;;;;;;;7.37;2.90;;;;;;;;;;5067867;28;20027;-67
2021/04/16 03:44:04;;;;;;;5.23;2.47;;;;;;;;;;5074672;28;20082;-67
2021/04/16 03:46:29;;;;;;;6.03;2.80;;;;;;;;;;5077282;28;20028;-67
2021/04/16 03:48:55;;;;;;;6.93;3.00;;;;;;;;;;5078218;28;20481;-67
2021/04/16 03:51:20;;;;;;;6.80;3.40;;;;;;;;;;5088576;28;20024;-67
2021/04/16 03:53:45;;;;;;;7.87;3.10;;;;;;;;;;5070055;28;20036;-68
2021/04/16 03:56:11;;;;;;;6.57;2.97;;;;;;;;;;5064079;28;20115;-67
2021/04/16 03:58:36;;;;;;;8.87;3.40;;;;;;;;;;5082596;28;20020;-67
2021/04/16 04:01:03;;;;;;;8.53;3.07;;;;;;;;;;5068302;28;20036;-67
2021/04/16 04:03:28;;;;;;;8.67;3.33;;;;;;;;;;5077100;28;20140;-67
2021/04/16 04:05:54;;;;;;;8.00;3.30;;;;;;;;;;5073236;28;20349;-67
2021/04/16 04:08:19;;;;;;;10.00;4.20;;;;;;;;;;5061569;28;20052;-67
2021/04/16 04:10:44;;;;;;;8.33;3.30;;;;;;;;;;5053920;28;20421;-67
2021/04/16 04:13:11;;;;;;;8.80;3.07;;;;;;;;;;5063443;28;20467;-67
2021/04/16 04:15:36;;;;;;;8.47;3.47;;;;;;;;;;5070975;28;20107;-67
2021/04/16 04:18:05;;;;;;;8.40;2.90;;;;;;;;;;5073303;28;20809;-67
2021/04/16 04:20:31;;;;;;;6.70;3.17;;;;;;;;;;5066676;28;20107;-67
2021/04/16 04:22:57;;;;;;;7.37;3.07;;;;;;;;;;5078442;28;20327;-67
2021/04/16 04:25:23;;;;;;;9.50;3.10;;;;;;;;;;5071953;28;20747;-67
2021/04/16 04:27:49;;;;;;;5.60;2.67;;;;;;;;;;5073567;28;20149;-67
2021/04/16 04:30:15;;;;;;;6.70;3.33;;;;;;;;;;5079197;28;20305;-67
2021/04/16 04:32:40;;;;;;;7.10;3.20;;;;;;;;;;5072811;28;20036;-67
2021/04/16 04:35:06;;;;;;;11.30;2.90;;;;;;;;;;5068553;28;20316;-67
2021/04/16 04:37:31;;;;;;;10.53;4.17;;;;;;;;;;5070418;28;20119;-67
2021/04/16 04:39:57;;;;;;;8.43;3.43;;;;;;;;;;5078277;28;20102;-67
2021/04/16 04:42:22;;;;;;;8.10;3.50;;;;;;;;;;5075710;28;20032;-67
2021/04/16 04:44:48;;;;;;;8.93;3.20;;;;;;;;;;5077415;28;20036;-67
2021/04/16 04:47:13;;;;;;;7.27;3.37;;;;;;;;;;5061591;28;20032;-67
2021/04/16 04:49:38;;;;;;;7.37;3.20;;;;;;;;;;5070246;28;20095;-67
2021/04/16 04:52:15;;;;;;;6.97;3.17;;;;;;;;;;5073161;28;20047;-67
2021/04/16 04:54:44;;;;;;;11.47;3.63;;;;;;;;;;5076176;28;20098;-67
2021/04/16 04:57:09;;;;;;;8.87;3.80;;;;;;;;;;5074770;28;20614;-67
2021/04/16 04:59:35;;;;;;;11.83;4.00;;;;;;;;;;5069932;28;20277;-67
2021/04/16 05:02:01;;;;;;;8.70;3.53;;;;;;;;;;5062566;28;20060;-67
2021/04/16 05:04:26;;;;;;;9.17;4.40;;;;;;;;;;5065114;28;20078;-67
2021/04/16 05:06:51;;;;;;;8.87;3.90;;;;;;;;;;5062509;28;20043;-67
2021/04/16 05:09:16;;;;;;;8.87;3.53;;;;;;;;;;5073838;28;20099;-67
2021/04/16 05:11:42;;;;;;;6.70;3.23;;;;;;;;;;5068943;28;20050;-67
2021/04/16 05:14:07;;;;;;;9.80;3.23;;;;;;;;;;5067497;28;20086;-67
2021/04/16 05:16:32;;;;;;;8.80;3.50;;;;;;;;;;5071434;28;20539;-67
2021/04/16 05:18:59;;;;;;;8.20;3.20;;;;;;;;;;5067390;28;20025;-67
2021/04/16 05:21:26;;;;;;;7.83;3.93;;;;;;;;;;5075742;28;20028;-67
2021/04/16 05:23:51;;;;;;;6.80;3.17;;;;;;;;;;5068814;28;20270;-67
2021/04/16 05:26:16;;;;;;;8.90;3.57;;;;;;;;;;5056229;28;20366;-67
2021/04/16 05:28:42;;;;;;;13.87;4.13;;;;;;;;;;5065368;28;20016;-67
2021/04/16 05:31:07;;;;;;;6.93;3.40;;;;;;;;;;5064046;28;20032;-67
2021/04/16 05:33:32;;;;;;;7.73;3.47;;;;;;;;;;5068538;28;20032;-67
2021/04/16 05:35:57;;;;;;;8.10;3.67;;;;;;;;;;5071794;28;20024;-67
2021/04/16 05:38:23;;;;;;;7.30;3.20;;;;;;;;;;5068254;28;20024;-67
2021/04/16 05:40:48;;;;;;;6.57;3.23;;;;;;;;;;5077426;28;20032;-67
2021/04/16 05:43:13;;;;;;;5.87;2.70;;;;;;;;;;5069661;28;20020;-67
2021/04/16 05:45:39;;;;;;;7.27;2.83;;;;;;;;;;5078281;28;20027;-67
2021/04/16 05:48:04;;;;;;;6.10;2.90;;;;;;;;;;5061136;28;20021;-67
2021/04/16 05:50:29;;;;;;;7.73;3.10;;;;;;;;;;5074211;28;20024;-64
2021/04/16 05:52:55;;;;;;;7.10;2.90;;;;;;;;;;5071218;28;20119;-65
2021/04/16 05:55:20;;;;;;;5.60;2.57;;;;;;;;;;5059658;28;20040;-65
2021/04/16 05:57:46;;;;;;;7.73;3.10;;;;;;;;;;5052671;28;20025;-65
2021/04/16 06:00:11;;;;;;;9.63;3.27;;;;;;;;;;5068537;28;20107;-65
2021/04/16 06:02:38;;;;;;;6.20;2.97;;;;;;;;;;5069538;28;20497;-65
2021/04/16 06:05:05;;;;;;;5.23;2.30;;;;;;;;;;5070238;28;20106;-65
2021/04/16 06:07:34;;;;;;;5.47;2.60;;;;;;;;;;5054678;28;20101;-65
2021/04/16 06:09:59;;;;;;;8.17;2.33;;;;;;;;;;5055814;28;20028;-65
2021/04/16 06:12:25;;;;;;;5.50;2.27;;;;;;;;;;5060631;28;20024;-65
2021/04/16 06:14:50;;;;;;;4.50;2.10;;;;;;;;;;5054898;28;20017;-65
2021/04/16 06:17:16;;;;;;;4.37;2.10;;;;;;;;;;5058809;28;20071;-65
2021/04/16 06:19:42;;;;;;;5.47;1.90;;;;;;;;;;5056394;28;20021;-66
2021/04/16 06:22:07;;;;;;;5.00;1.83;;;;;;;;;;5070195;28;20020;-66
2021/04/16 06:24:32;;;;;;;4.10;1.50;;;;;;;;;;5067225;28;20538;-66
2021/04/16 06:26:58;;;;;;;4.90;1.70;;;;;;;;;;5061412;28;20053;-66
2021/04/16 06:29:23;;;;;;;3.73;1.70;;;;;;;;;;5062983;28;20483;-66
2021/04/16 06:31:48;;;;;;;4.90;1.70;;;;;;;;;;5065153;28;20055;-66
2021/04/16 06:34:13;;;;;;;5.53;1.60;;;;;;;;;;5055851;28;20029;-66
2021/04/16 06:36:39;;;;;;;4.57;1.60;;;;;;;;;;5057102;28;20033;-66
2021/04/16 06:39:04;;;;;;;4.87;1.57;;;;;;;;;;5055617;28;20025;-66
2021/04/16 06:41:31;;;;;;;3.87;1.40;;;;;;;;;;5054340;28;20040;-66
2021/04/16 06:43:59;;;;;;;4.87;1.50;;;;;;;;;;5060558;28;20429;-66
2021/04/16 06:46:44;;;;;;;3.43;1.30;;;;;;;;;;5063767;28;20020;-66
2021/04/16 06:49:15;;;;;;;3.80;1.07;;;;;;;;;;5066310;28;20086;-66
2021/04/16 06:51:43;;;;;;;2.87;1.23;;;;;;;;;;5053866;28;20104;-66
2021/04/16 06:54:16;;;;;;;3.80;1.13;;;;;;;;;;5060323;28;20491;-66
2021/04/16 06:56:42;;;;;;;3.40;1.40;;;;;;;;;;5054427;28;20415;-66
2021/04/16 06:59:15;;;;;;;2.90;1.30;;;;;;;;;;5051905;28;20025;-65
2021/04/16 07:01:43;;;;;;;3.50;1.17;;;;;;;;;;5059405;28;20160;-66
2021/04/16 07:04:15;;;;;;;3.93;1.30;;;;;;;;;;5050674;28;20041;-67
2021/04/16 07:06:40;;;;;;;3.78;1.25;;;;;;;;;;5057314;28;20112;-67
2021/04/16 07:09:05;;;;;;;8.20;1.80;;;;;;;;;;5050997;28;20495;-66
2021/04/16 07:11:38;;;;;;;3.20;1.30;;;;;;;;;;5062078;28;20031;-66
2021/04/16 07:14:06;;;;;;;4.37;1.30;;;;;;;;;;5050960;28;20079;-67
2021/04/16 07:16:33;;;;;;;4.77;1.77;;;;;;;;;;5060563;28;20036;-67
2021/04/16 07:19:01;;;;;;;4.37;1.70;;;;;;;;;;5051510;28;20028;-67
2021/04/16 07:21:26;;;;;;;4.00;1.50;;;;;;;;;;5067969;28;20452;-67
2021/04/16 07:23:53;;;;;;;4.67;1.20;;;;;;;;;;5064394;28;20059;-67
2021/04/16 07:26:21;;;;;;;4.43;1.20;;;;;;;;;;5061578;28;20036;-67
2021/04/16 07:28:51;;;;;;;3.40;1.10;;;;;;;;;;5055098;28;20021;-67
2021/04/16 07:31:42;;;;;;;3.30;1.00;;;;;;;;;;5063199;28;20037;-67
2021/04/16 07:34:34;;;;;;;2.80;1.10;;;;;;;;;;5074935;28;20029;-67
2021/04/16 07:37:11;;;;;;;3.57;1.20;;;;;;;;;;5051371;28;20041;-67
2021/04/16 07:39:43;;;;;;;4.37;1.20;;;;;;;;;;5055574;28;20287;-67
2021/04/16 07:42:08;;;;;;;3.58;1.40;;;;;;;;;;5057106;28;20035;-67
2021/04/16 07:44:34;;;;;;;3.50;1.50;;;;;;;;;;5055154;28;20492;-67
2021/04/16 07:47:20;;;;;;;2.50;1.10;;;;;;;;;;5056798;28;20540;-68
2021/04/16 07:49:56;;;;;;;2.67;1.30;;;;;;;;;;5056043;28;20566;-68
2021/04/16 07:52:26;;;;;;;2.17;1.00;;;;;;;;;;5055494;28;20027;-68
2021/04/16 07:55:06;;;;;;;4.73;1.30;;;;;;;;;;5071668;28;20142;-68
2021/04/16 07:57:33;;;;;;;4.00;1.27;;;;;;;;;;5054863;28;20027;-68
2021/04/16 08:00:04;;;;;;;4.93;1.40;;;;;;;;;;5058329;28;20618;-68
2021/04/16 08:02:34;;;;;;;3.80;1.15;;;;;;;;;;5056794;28;20115;-68
2021/04/16 08:05:11;;;;;;;3.30;1.20;;;;;;;;;;5058886;28;20036;-68
2021/04/16 08:07:36;;;;;;;2.85;1.27;;;;;;;;;;5060856;28;20017;-68
2021/04/16 08:10:12;;;;;;;5.63;1.38;;;;;;;;;;5058862;28;20103;-68
2021/04/16 08:12:37;;;;;;;5.13;1.33;;;;;;;;;;5059596;28;20025;-68
2021/04/16 08:15:12;;;;;;;3.05;1.42;;;;;;;;;;5058436;28;20033;-68
2021/04/16 08:17:38;;;;;;;3.45;1.30;;;;;;;;;;5057881;28;20086;-68
2021/04/16 08:20:12;;;;;;;3.08;1.20;;;;;;;;;;5059003;28;20046;-68
2021/04/16 08:22:38;;;;;;;4.78;1.15;;;;;;;;;;5063605;28;20036;-68
2021/04/16 08:25:10;;;;;;;2.58;1.13;;;;;;;;;;5064543;28;20385;-68
2021/04/16 08:27:44;;;;;;;2.58;1.05;;;;;;;;;;5055573;28;20071;-68
2021/04/16 08:30:12;;;;;;;2.67;1.10;;;;;;;;;;5059351;28;20387;-68
2021/04/16 08:32:47;;;;;;;3.03;1.35;;;;;;;;;;5054453;28;20092;-68
2021/04/16 08:35:12;;;;;;;2.45;1.08;;;;;;;;;;5059839;28;20036;-68
2021/04/16 08:37:43;;;;;;;4.25;1.42;;;;;;;;;;5053159;28;20033;-68
2021/04/16 08:40:11;;;;;;;2.95;1.10;;;;;;;;;;5058534;28;20021;-68
2021/04/16 08:42:36;;;;;;;4.85;1.40;;;;;;;;;;5053786;28;20040;-68
2021/04/16 08:45:22;;;;;;;2.60;1.02;;;;;;;;;;5057572;28;20024;-68
2021/04/16 08:48:00;;;;;;;3.80;1.10;;;;;;;;;;5053335;28;20036;-68
2021/04/16 08:50:28;;;;;;;1.27;0.70;;;;;;;;;;5055923;28;20021;-68
2021/04/16 08:52:55;;;;;;;1.70;0.80;;;;;;;;;;5058844;28;20020;-68
2021/04/16 08:55:27;;;;;;;2.00;0.95;;;;;;;;;;5067355;28;20090;-68
2021/04/16 08:57:54;;;;;;;2.58;1.10;;;;;;;;;;5053388;28;20021;-69
2021/04/16 09:00:29;;;;;;;2.78;1.00;;;;;;;;;;5060504;28;20020;-68
2021/04/16 09:02:56;;;;;;;3.17;0.93;;;;;;;;;;5052299;28;20518;-68
2021/04/16 09:05:47;;;;;;;2.42;1.05;;;;;;;;;;5060697;28;20031;-68
2021/04/16 09:08:17;;;;;;;3.57;0.90;;;;;;;;;;5050143;28;20021;-69
2021/04/16 09:10:47;;;;;;;2.90;0.82;;;;;;;;;;5063466;28;20099;-68
2021/04/16 09:13:32;;;;;;;5.43;0.90;;;;;;;;;;5073461;28;20024;-68
2021/04/16 09:16:16;;;;;;;3.22;0.90;;;;;;;;;;5053080;28;20036;-68
2021/04/16 09:18:46;;;;;;;1.65;0.77;;;;;;;;;;5052987;28;20017;-68
2021/04/16 09:21:14;;;;;;;2.30;0.90;;;;;;;;;;5063857;28;20029;-68
2021/04/16 09:23:39;;;;;;;3.15;0.98;;;;;;;;;;5063135;28;20070;-68
2021/04/16 09:26:05;;;;;;;4.47;0.98;;;;;;;;;;5062213;28;20378;-68
2021/04/16 09:28:35;;;;;;;6.35;1.00;;;;;;;;;;5052344;28;20100;-68
2021/04/16 09:31:24;;;;;;;5.47;0.88;;;;;;;;;;5059888;28;20431;-68
2021/04/16 09:34:04;;;;;;;4.00;0.90;;;;;;;;;;5052820;28;20028;-68
2021/04/16 09:36:29;;;;;;;4.05;0.93;;;;;;;;;;5058334;28;20025;-68
2021/04/16 09:39:12;;;;;;;2.25;0.90;;;;;;;;;;5052191;28;20025;-68
2021/04/16 09:41:37;;;;;;;4.40;1.00;;;;;;;;;;5057026;28;20025;-68
2021/04/16 09:44:21;;;;;;;5.13;0.90;;;;;;;;;;5052606;28;20368;-68
2021/04/16 09:46:48;;;;;;;2.70;0.90;;;;;;;;;;5055908;28;20051;-68
2021/04/16 09:49:23;;;;;;;3.00;1.00;;;;;;;;;;5051975;28;20021;-68
2021/04/16 09:51:48;;;;;;;2.13;0.82;;;;;;;;;;5054886;28;20543;-68
2021/04/16 09:54:13;;;;;;;2.20;0.93;;;;;;;;;;5068797;28;20028;-68
2021/04/16 09:56:58;;;;;;;3.42;0.80;;;;;;;;;;5055770;28;20377;-68
2021/04/16 09:59:27;;;;;;;3.67;1.10;;;;;;;;;;5051846;28;20025;-67
2021/04/16 10:02:11;;;;;;;2.05;1.10;;;;;;;;;;5047117;28;20033;-68
2021/04/16 10:04:45;;;;;;;2.65;0.93;;;;;;;;;;5053233;28;20036;-67
2021/04/16 10:07:12;;;;;;;2.95;0.95;;;;;;;;;;5062597;28;20083;-67
2021/04/16 10:09:37;;;;;;;2.17;0.85;;;;;;;;;;5062339;28;20017;-68
2021/04/16 10:12:12;;;;;;;2.28;0.93;;;;;;;;;;5054858;28;20028;-68
2021/04/16 10:14:38;;;;;;;4.13;1.00;;;;;;;;;;5035782;28;20048;-67
2021/04/16 10:17:13;;;;;;;3.30;1.17;;;;;;;;;;5060687;28;20021;-68
2021/04/16 10:19:40;;;;;;;3.40;0.90;;;;;;;;;;5053437;28;20074;-67
2021/04/16 10:22:10;;;;;;;2.95;0.82;;;;;;;;;;5068556;28;20025;-67
2021/04/16 10:51:56;;;;;;;5.00;1.08;;;;;;;;;;5062864;28;20527;-67
2021/04/16 12:39:16;;;;;;;4.23;1.70;;;;;;;;;;5063491;28;20027;-65
2021/04/16 12:41:47;;;;;;;4.83;1.50;;;;;;;;;;5060180;28;20024;-65
2021/04/16 12:44:21;;;;;;;3.50;1.63;;;;;;;;;;5076082;28;20051;-66
2021/04/16 12:46:46;;;;;;;3.70;1.30;;;;;;;;;;5058083;28;20048;-67
2021/04/16 12:49:11;;;;;;;4.27;1.63;;;;;;;;;;5055300;28;20040;-67
2021/04/16 12:51:37;;;;;;;3.17;1.30;;;;;;;;;;5064215;28;20035;-67
2021/04/16 12:54:02;;;;;;;4.57;1.17;;;;;;;;;;5061013;28;20519;-67
2021/04/16 12:56:35;;;;;;;5.77;1.60;;;;;;;;;;5062775;28;20489;-67
2021/04/16 12:59:05;;;;;;;2.53;1.17;;;;;;;;;;5064691;28;20025;-67
2021/04/16 13:01:31;;;;;;;3.63;1.60;;;;;;;;;;5068480;28;20484;-67
2021/04/16 13:03:57;;;;;;;5.47;1.50;;;;;;;;;;5070209;28;20181;-67
2021/04/16 13:06:25;;;;;;;3.87;1.50;;;;;;;;;;5061258;28;20025;-67
2021/04/16 13:08:51;;;;;;;6.33;1.93;;;;;;;;;;5072286;28;20369;-67
2021/04/16 13:11:17;;;;;;;3.80;1.53;;;;;;;;;;5061976;28;20036;-67
2021/04/16 13:13:42;;;;;;;3.37;1.37;;;;;;;;;;5066174;28;20020;-67
2021/04/16 13:16:08;;;;;;;4.87;1.73;;;;;;;;;;5064129;28;20089;-67
2021/04/16 13:18:39;;;;;;;5.10;1.60;;;;;;;;;;5056400;28;20028;-67
2021/04/16 13:21:05;;;;;;;3.70;1.37;;;;;;;;;;5058357;28;20350;-67
2021/04/16 13:23:31;;;;;;;2.33;1.03;;;;;;;;;;5071035;28;20024;-67
2021/04/16 13:25:56;;;;;;;3.67;1.73;;;;;;;;;;5058491;28;20033;-67
2021/04/16 13:28:21;;;;;;;3.27;1.40;;;;;;;;;;5055588;28;20421;-67
2021/04/16 13:30:46;;;;;;;3.07;1.17;;;;;;;;;;5062351;28;20045;-67
2021/04/16 13:33:17;;;;;;;4.07;1.53;;;;;;;;;;5071330;28;20586;-67
2021/04/16 13:35:44;;;;;;;6.10;1.43;;;;;;;;;;5056266;28;20167;-67
2021/04/16 13:38:21;;;;;;;3.00;1.30;;;;;;;;;;5066105;28;20020;-67
2021/04/16 13:40:46;;;;;;;6.17;1.60;;;;;;;;;;5063206;28;20037;-67
2021/04/16 13:43:12;;;;;;;5.40;2.40;;;;;;;;;;5053201;28;20370;-67
2021/04/16 13:45:38;;;;;;;4.00;1.50;;;;;;;;;;5065723;28;20023;-67
2021/04/16 13:48:03;;;;;;;3.70;1.90;;;;;;;;;;5065079;28;20073;-67
2021/04/16 13:50:29;;;;;;;2.50;1.07;;;;;;;;;;5066733;28;20032;-67
2021/04/16 13:52:54;;;;;;;6.37;2.07;;;;;;;;;;5055909;28;20024;-67
2021/04/16 13:55:20;;;;;;;5.03;1.80;;;;;;;;;;5063304;28;20028;-67
2021/04/16 13:57:46;;;;;;;4.47;1.80;;;;;;;;;;5068090;28;20422;-67
2021/04/16 14:00:13;;;;;;;4.70;1.30;;;;;;;;;;5067457;28;20039;-67
2021/04/16 14:02:44;;;;;;;4.30;1.33;;;;;;;;;;5033718;28;677616;-67
2021/04/16 14:05:10;;;;;;;3.07;1.33;;;;;;;;;;5060623;28;20059;-67
2021/04/16 14:07:37;;;;;;;4.03;1.13;;;;;;;;;;5058233;28;20032;-67
2021/04/16 14:10:02;;;;;;;4.90;1.57;;;;;;;;;;5058489;28;20032;-67
2021/04/16 14:12:28;;;;;;;4.37;1.30;;;;;;;;;;5056395;28;20032;-67
2021/04/16 14:14:54;;;;;;;4.40;1.30;;;;;;;;;;5064064;28;20078;-67
2021/04/16 14:17:25;;;;;;;4.83;1.40;;;;;;;;;;5067005;28;20035;-67
2021/04/16 14:19:52;;;;;;;3.37;1.50;;;;;;;;;;5073450;28;20032;-67
2021/04/16 14:22:40;;;;;;;5.00;1.90;;;;;;;;;;5069234;28;20068;-67
2021/04/16 14:25:10;;;;;;;3.80;1.60;;;;;;;;;;5047434;28;20041;-67
2021/04/16 14:27:36;;;;;;;5.00;2.00;;;;;;;;;;5057960;28;20075;-67
2021/04/16 14:30:04;;;;;;;4.37;1.40;;;;;;;;;;5055620;28;20275;-67
2021/04/16 14:32:30;;;;;;;3.87;1.50;;;;;;;;;;5059443;28;20083;-67
2021/04/16 14:34:56;;;;;;;5.17;1.83;;;;;;;;;;5071730;28;20427;-67
2021/04/16 14:37:21;;;;;;;3.20;1.47;;;;;;;;;;5057741;28;20105;-67
2021/04/16 14:39:47;;;;;;;6.00;2.07;;;;;;;;;;5056473;28;20440;-67
2021/04/16 14:42:14;;;;;;;3.60;1.47;;;;;;;;;;5055425;28;20025;-67
2021/04/16 14:44:40;;;;;;;4.37;1.60;;;;;;;;;;5053278;28;20477;-67
2021/04/16 14:47:05;;;;;;;3.20;1.30;;;;;;;;;;5069460;28;20025;-67
2021/04/16 14:49:32;;;;;;;5.57;1.60;;;;;;;;;;5072532;28;20051;-67
2021/04/16 14:51:58;;;;;;;3.43;1.33;;;;;;;;;;5068557;28;20025;-67
2021/04/16 14:54:24;;;;;;;7.03;2.10;;;;;;;;;;5066753;28;20487;-67
2021/04/16 14:56:50;;;;;;;3.37;1.53;;;;;;;;;;5053806;28;20104;-67
2021/04/16 14:59:23;;;;;;;4.67;1.70;;;;;;;;;;5061434;28;20543;-67
2021/04/16 15:01:51;;;;;;;4.33;1.90;;;;;;;;;;5057453;28;20032;-67
2021/04/16 15:04:16;;;;;;;5.17;1.80;;;;;;;;;;5075163;28;20028;-67
2021/04/16 15:06:42;;;;;;;4.43;1.90;;;;;;;;;;5073362;28;20399;-67
2021/04/16 15:09:08;;;;;;;4.73;1.57;;;;;;;;;;5076258;28;20017;-67
2021/04/16 15:11:52;;;;;;;5.67;1.60;;;;;;;;;;5075101;28;20626;-67
2021/04/16 15:14:28;;;;;;;4.10;1.30;;;;;;;;;;5064755;28;20487;-67
2021/04/16 15:16:54;;;;;;;6.07;1.63;;;;;;;;;;5058473;28;20460;-67
2021/04/16 15:19:27;;;;;;;4.67;1.90;;;;;;;;;;5063478;28;20484;-67
2021/04/16 15:21:53;;;;;;;4.53;1.40;;;;;;;;;;5064596;28;20028;-67
2021/04/16 15:24:18;;;;;;;3.23;1.20;;;;;;;;;;5071207;28;20585;-67
2021/04/16 15:26:44;;;;;;;3.47;1.50;;;;;;;;;;5061962;28;20471;-67
2021/04/16 15:29:11;;;;;;;3.97;1.50;;;;;;;;;;5070560;28;20503;-67
2021/04/16 15:31:37;;;;;;;3.37;1.40;;;;;;;;;;5057622;28;20025;-67
2021/04/16 15:47:37;;;;;;;4.10;1.13;;;;;;;;;;5055407;28;20051;-67
2021/04/16 15:50:05;;;;;;;5.17;1.50;;;;;;;;;;5070953;28;20103;-67
2021/04/16 15:52:30;;;;;;;4.23;1.43;;;;;;;;;;5067679;28;20029;-67
2021/04/16 15:54:55;;;;;;;4.93;1.60;;;;;;;;;;5064170;28;20033;-67
2021/04/16 15:57:21;;;;;;;3.70;1.37;;;;;;;;;;5075724;28;20026;-67
2021/04/16 15:59:46;;;;;;;4.30;1.50;;;;;;;;;;5069291;28;20032;-67
2021/04/16 16:02:13;;;;;;;2.80;1.20;;;;;;;;;;5071380;28;20036;-67
2021/04/16 16:04:38;;;;;;;2.53;1.10;;;;;;;;;;5070010;28;20024;-67
2021/04/16 16:07:04;;;;;;;2.73;0.90;;;;;;;;;;5058683;28;20021;-67
2021/04/16 16:09:30;;;;;;;2.83;1.10;;;;;;;;;;5068954;28;20075;-67
2021/04/16 16:11:57;;;;;;;3.43;1.30;;;;;;;;;;5073766;28;20430;-67
2021/04/16 16:14:25;;;;;;;5.33;1.10;;;;;;;;;;5067195;28;20396;-67
2021/04/16 16:16:52;;;;;;;3.43;1.30;;;;;;;;;;5075564;28;20389;-67
2021/04/16 16:19:17;;;;;;;4.47;1.20;;;;;;;;;;5069858;28;20021;-67
2021/04/16 16:21:43;;;;;;;4.13;1.30;;;;;;;;;;5068343;28;20036;-66
2021/04/16 16:24:09;;;;;;;2.87;1.10;;;;;;;;;;5066179;28;20025;-67
2021/04/16 16:26:42;;;;;;;2.97;1.20;;;;;;;;;;5061139;28;20027;-66
2021/04/16 16:29:12;;;;;;;5.67;1.43;;;;;;;;;;5069472;28;20487;-67
2021/04/16 16:31:37;;;;;;;2.53;1.10;;;;;;;;;;5069491;28;20465;-67
2021/04/16 16:34:03;;;;;;;5.33;1.63;;;;;;;;;;5071200;28;20024;-67
2021/04/16 16:36:28;;;;;;;5.60;1.47;;;;;;;;;;5070081;28;20047;-67
2021/04/16 16:38:54;;;;;;;3.30;1.17;;;;;;;;;;5074984;28;20028;-67
2021/04/16 16:41:19;;;;;;;2.97;1.30;;;;;;;;;;5065466;28;20037;-67
2021/04/16 16:43:46;;;;;;;3.20;1.20;;;;;;;;;;5065857;28;20025;-67
2021/04/16 16:46:16;;;;;;;4.27;1.83;;;;;;;;;;5070954;28;20024;-67
2021/04/16 16:48:42;;;;;;;3.97;1.50;;;;;;;;;;5061647;28;20065;-67
2021/04/16 16:51:08;;;;;;;4.67;1.30;;;;;;;;;;5071065;28;20028;-67
2021/04/16 16:53:34;;;;;;;4.60;1.40;;;;;;;;;;5085508;28;20380;-67
2021/04/16 16:55:59;;;;;;;3.73;1.50;;;;;;;;;;5068779;28;20036;-67
2021/04/16 16:58:30;;;;;;;3.67;1.10;;;;;;;;;;5085992;28;20024;-67
2021/04/16 17:01:00;;;;;;;2.53;1.10;;;;;;;;;;5071944;28;20032;-65
2021/04/16 17:03:26;;;;;;;5.13;1.20;;;;;;;;;;5073900;28;20040;-65
2021/04/16 17:05:52;;;;;;;5.87;1.73;;;;;;;;;;5068529;28;20442;-65
2021/04/16 17:08:17;;;;;;;5.43;1.60;;;;;;;;;;5054574;28;20029;-65
2021/04/16 17:10:43;;;;;;;2.80;1.20;;;;;;;;;;5064697;28;20389;-65